createdAt,value
2022-09-09T00:00:43.930Z,85
2022-09-09T00:01:48.394Z,85
2022-09-09T00:03:02.989Z,85
2022-09-09T00:04:12.985Z,85
2022-09-09T00:05:25.034Z,85
2022-09-09T00:07:43.001Z,85
2022-09-09T00:08:52.263Z,85
2022-09-09T00:10:05.025Z,85
2022-09-09T00:11:19.454Z,85
2022-09-09T00:12:23.862Z,85
2022-09-09T00:13:33.097Z,85
2022-09-09T00:14:42.333Z,85
2022-09-09T00:15:52.766Z,85
2022-09-09T00:17:05.266Z,86
2022-09-09T00:18:14.610Z,85
2022-09-09T00:19:18.901Z,85
2022-09-09T00:20:26.938Z,86
2022-09-09T00:21:31.981Z,87
2022-09-09T00:22:41.261Z,85
2022-09-09T00:23:45.466Z,86
2022-09-09T00:24:52.629Z,86
2022-09-09T00:25:56.801Z,86
2022-09-09T00:27:04.122Z,86
2022-09-09T00:28:14.459Z,86
2022-09-09T00:29:18.681Z,86
2022-09-09T00:30:28.033Z,85
2022-09-09T00:31:32.389Z,85
2022-09-09T00:32:36.835Z,86
2022-09-09T00:33:41.469Z,85
2022-09-09T00:34:45.745Z,85
2022-09-09T00:35:50.065Z,85
2022-09-09T00:36:57.198Z,85
2022-09-09T00:38:01.597Z,85
2022-09-09T00:39:05.846Z,85
2022-09-09T00:40:10.640Z,85
2022-09-09T00:41:17.725Z,85
2022-09-09T00:42:27.197Z,85
2022-09-09T00:43:31.325Z,86
2022-09-09T00:44:38.347Z,85
2022-09-09T00:45:52.843Z,85
2022-09-09T00:47:02.225Z,86
2022-09-09T00:48:11.847Z,86
2022-09-09T00:49:16.318Z,86
2022-09-09T00:50:28.282Z,86
2022-09-09T00:51:40.553Z,85
2022-09-09T00:54:06.065Z,86
2022-09-09T00:55:10.347Z,85
2022-09-09T00:56:19.589Z,85
2022-09-09T00:57:26.913Z,87
2022-09-09T00:58:31.121Z,87
2022-09-09T00:59:35.398Z,86
2022-09-09T01:00:44.641Z,86
2022-09-09T01:01:50.220Z,86
2022-09-09T01:02:54.511Z,86
2022-09-09T01:04:03.746Z,86
2022-09-09T01:05:10.566Z,86
2022-09-09T01:06:14.849Z,85
2022-09-09T01:07:27.566Z,86
2022-09-09T01:08:31.897Z,85
2022-09-09T01:09:41.049Z,85
2022-09-09T01:10:53.202Z,85
2022-09-09T01:11:57.437Z,85
2022-09-09T01:14:15.597Z,85
2022-09-09T01:15:30.001Z,85
2022-09-09T01:16:34.332Z,85
2022-09-09T01:17:38.489Z,85
2022-09-09T01:18:50.913Z,85
2022-09-09T01:19:55.485Z,85
2022-09-09T01:21:05.093Z,85
2022-09-09T01:22:17.461Z,85
2022-09-09T01:23:26.765Z,86
2022-09-09T01:24:37.041Z,86
2022-09-09T01:25:44.729Z,86
2022-09-09T01:26:59.072Z,85
2022-09-09T01:28:03.394Z,85
2022-09-09T01:29:07.453Z,86
2022-09-09T01:30:11.825Z,86
2022-09-09T01:31:16.055Z,86
2022-09-09T01:32:20.221Z,86
2022-09-09T01:33:34.433Z,85
2022-09-09T01:34:39.977Z,86
2022-09-09T01:35:44.321Z,86
2022-09-09T01:38:05.236Z,85
2022-09-09T01:39:09.498Z,85
2022-09-09T01:40:14.206Z,85
2022-09-09T01:41:18.673Z,86
2022-09-09T01:42:22.957Z,85
2022-09-09T01:43:27.257Z,85
2022-09-09T01:44:31.746Z,85
2022-09-09T01:45:36.092Z,85
2022-09-09T01:46:40.332Z,85
2022-09-09T01:48:47.993Z,85
2022-09-09T01:49:52.270Z,85
2022-09-09T01:50:56.933Z,85
2022-09-09T01:52:01.150Z,85
2022-09-09T01:53:05.753Z,86
2022-09-09T01:54:09.954Z,86
2022-09-09T01:55:14.306Z,87
2022-09-09T01:56:18.589Z,86
2022-09-09T01:57:22.948Z,86
2022-09-09T01:58:29.873Z,86
2022-09-09T01:59:39.313Z,86
2022-09-09T02:00:48.718Z,86
2022-09-09T02:01:59.549Z,85
2022-09-09T02:03:11.821Z,86
2022-09-09T02:04:19.009Z,85
2022-09-09T02:05:26.465Z,85
2022-09-09T02:06:34.315Z,86
2022-09-09T02:07:38.590Z,86
2022-09-09T02:08:42.777Z,86
2022-09-09T02:09:46.972Z,85
2022-09-09T02:10:51.653Z,86
2022-09-09T02:11:59.890Z,85
2022-09-09T02:13:04.210Z,86
2022-09-09T02:14:11.220Z,86
2022-09-09T02:15:15.494Z,86
2022-09-09T02:16:22.490Z,86
2022-09-09T02:17:31.696Z,86
2022-09-09T02:18:36.978Z,86
2022-09-09T02:19:52.093Z,85
2022-09-09T02:21:01.730Z,85
2022-09-09T02:22:10.644Z,85
2022-09-09T02:23:15.039Z,86
2022-09-09T02:24:19.361Z,85
2022-09-09T02:25:23.673Z,85
2022-09-09T02:26:27.884Z,85
2022-09-09T02:27:32.196Z,85
2022-09-09T02:28:36.569Z,85
2022-09-09T02:29:40.729Z,85
2022-09-09T02:30:44.960Z,85
2022-09-09T02:31:49.065Z,85
2022-09-09T02:32:53.518Z,84
2022-09-09T02:33:58.041Z,84
2022-09-09T02:35:02.313Z,84
2022-09-09T02:36:11.601Z,84
2022-09-09T02:37:15.968Z,84
2022-09-09T02:38:20.200Z,84
2022-09-09T02:39:24.505Z,84
2022-09-09T02:40:28.781Z,84
2022-09-09T02:41:33.048Z,84
2022-09-09T02:42:37.393Z,85
2022-09-09T02:43:44.492Z,84
2022-09-09T02:44:48.760Z,84
2022-09-09T02:47:02.348Z,84
2022-09-09T02:49:15.977Z,84
2022-09-09T02:50:20.280Z,84
2022-09-09T02:51:24.549Z,84
2022-09-09T02:52:33.864Z,85
2022-09-09T02:53:48.196Z,85
2022-09-09T02:54:57.599Z,84
2022-09-09T02:56:01.832Z,85
2022-09-09T02:57:06.248Z,85
2022-09-09T02:58:15.517Z,86
2022-09-09T02:59:19.969Z,86
2022-09-09T03:00:24.380Z,86
2022-09-09T03:01:28.825Z,87
2022-09-09T03:02:33.075Z,86
2022-09-09T03:03:37.240Z,86
2022-09-09T03:04:41.440Z,86
2022-09-09T03:05:45.864Z,85
2022-09-09T03:06:50.284Z,86
2022-09-09T03:07:54.577Z,87
2022-09-09T03:09:01.699Z,87
2022-09-09T03:10:05.868Z,86
2022-09-09T03:11:10.166Z,86
2022-09-09T03:12:14.815Z,87
2022-09-09T03:13:19.202Z,86
2022-09-09T03:14:23.681Z,85
2022-09-09T03:15:27.919Z,86
2022-09-09T03:16:32.147Z,85
2022-09-09T03:17:36.285Z,86
2022-09-09T03:18:40.761Z,85
2022-09-09T03:19:44.981Z,86
2022-09-09T03:20:49.269Z,86
2022-09-09T03:21:53.516Z,85
2022-09-09T03:22:57.757Z,85
2022-09-09T03:24:01.996Z,85
2022-09-09T03:25:06.237Z,85
2022-09-09T03:26:10.429Z,84
2022-09-09T03:27:17.109Z,85
2022-09-09T03:28:21.356Z,84
2022-09-09T03:29:25.620Z,84
2022-09-09T03:30:30.076Z,85
2022-09-09T03:31:34.413Z,85
2022-09-09T03:32:39.147Z,85
2022-09-09T03:33:43.676Z,86
2022-09-09T03:34:48.065Z,86
2022-09-09T03:35:53.104Z,86
2022-09-09T03:36:57.406Z,87
2022-09-09T03:38:01.694Z,87
2022-09-09T03:39:06.018Z,87
2022-09-09T03:40:10.457Z,87
2022-09-09T03:41:15.011Z,86
2022-09-09T03:42:19.518Z,87
2022-09-09T03:43:23.928Z,86
2022-09-09T03:44:28.178Z,86
2022-09-09T03:45:32.595Z,86
2022-09-09T03:46:38.438Z,86
2022-09-09T03:47:42.983Z,85
2022-09-09T03:48:47.282Z,85
2022-09-09T03:49:51.494Z,86
2022-09-09T03:50:55.846Z,87
2022-09-09T03:52:00.121Z,87
2022-09-09T03:53:04.215Z,86
2022-09-09T03:54:08.598Z,86
2022-09-09T03:55:13.022Z,86
2022-09-09T03:56:17.498Z,86
2022-09-09T03:57:21.730Z,86
2022-09-09T03:58:28.142Z,87
2022-09-09T03:59:32.318Z,87
2022-09-09T04:00:36.526Z,86
2022-09-09T04:01:41.010Z,86
2022-09-09T04:02:45.287Z,87
2022-09-09T04:05:40.618Z,86
2022-09-09T04:06:44.965Z,87
2022-09-09T04:07:51.954Z,86
2022-09-09T04:08:56.582Z,87
2022-09-09T04:10:01.173Z,87
2022-09-09T04:11:05.694Z,87
2022-09-09T04:12:10.394Z,86
2022-09-09T04:13:14.664Z,85
2022-09-09T04:14:19.030Z,85
2022-09-09T04:15:23.256Z,85
2022-09-09T04:16:27.605Z,85
2022-09-09T04:17:32.005Z,85
2022-09-09T04:18:36.842Z,86
2022-09-09T04:19:40.938Z,86
2022-09-09T04:20:49.766Z,87
2022-09-09T04:21:54.050Z,87
2022-09-09T04:22:58.393Z,87
2022-09-09T04:24:02.681Z,86
2022-09-09T04:25:11.703Z,87
2022-09-09T04:26:15.933Z,87
2022-09-09T04:27:20.134Z,86
2022-09-09T04:28:24.422Z,86
2022-09-09T04:29:28.955Z,87
2022-09-09T04:30:36.295Z,86
2022-09-09T04:31:40.695Z,86
2022-09-09T04:32:45.034Z,86
2022-09-09T04:33:49.555Z,87
2022-09-09T04:34:53.682Z,86
2022-09-09T04:35:58.110Z,87
2022-09-09T04:37:03.030Z,86
2022-09-09T04:38:08.161Z,86
2022-09-09T04:39:12.613Z,85
2022-09-09T04:40:16.947Z,85
2022-09-09T04:41:21.306Z,85
2022-09-09T04:42:25.622Z,86
2022-09-09T04:43:29.926Z,86
2022-09-09T04:44:34.185Z,86
2022-09-09T04:45:38.885Z,85
2022-09-09T04:46:45.827Z,85
2022-09-09T04:47:50.285Z,85
2022-09-09T04:48:55.070Z,85
2022-09-09T04:49:59.548Z,85
2022-09-09T04:51:03.958Z,84
2022-09-09T04:52:08.278Z,84
2022-09-09T04:53:13.878Z,85
2022-09-09T04:54:21.610Z,85
2022-09-09T04:55:25.799Z,86
2022-09-09T04:56:31.074Z,85
2022-09-09T04:57:35.339Z,85
2022-09-09T04:58:49.772Z,85
2022-09-09T04:59:57.530Z,85
2022-09-09T05:01:02.124Z,87
2022-09-09T05:02:08.878Z,87
2022-09-09T05:03:13.010Z,87
2022-09-09T05:04:17.502Z,86
2022-09-09T05:07:12.434Z,86
2022-09-09T05:11:58.867Z,85
2022-09-09T05:15:53.760Z,86
2022-09-09T05:20:36.904Z,86
2022-09-09T05:25:20.904Z,87
2022-09-09T05:26:25.314Z,87
2022-09-09T05:27:29.677Z,86
2022-09-09T05:28:33.926Z,86
2022-09-09T05:32:15.446Z,85
2022-09-09T05:33:19.646Z,86
2022-09-09T05:34:23.861Z,85
2022-09-09T05:35:28.325Z,86
2022-09-09T05:36:32.783Z,86
2022-09-09T05:37:37.101Z,86
2022-09-09T05:38:42.467Z,86
2022-09-09T05:39:46.741Z,86
2022-09-09T05:40:54.882Z,87
2022-09-09T05:41:59.118Z,87
2022-09-09T05:44:52.966Z,87
2022-09-09T05:49:36.174Z,87
2022-09-09T05:50:40.614Z,87
2022-09-09T05:54:04.292Z,86
2022-09-09T05:59:17.264Z,86
2022-09-09T06:04:00.680Z,86
2022-09-09T06:08:43.599Z,85
2022-09-09T06:14:06.406Z,86
2022-09-09T06:15:10.479Z,85
2022-09-09T06:18:49.561Z,86
2022-09-09T06:19:53.734Z,85
2022-09-09T06:20:59.283Z,86
2022-09-09T06:22:05.485Z,86
2022-09-09T06:23:09.890Z,86
2022-09-09T06:25:17.741Z,85
2022-09-09T06:26:22.069Z,85
2022-09-09T06:27:29.049Z,84
2022-09-09T06:28:33.379Z,86
2022-09-09T06:29:37.857Z,85
2022-09-09T06:30:42.194Z,86
2022-09-09T06:31:46.623Z,85
2022-09-09T06:32:50.942Z,85
2022-09-09T06:34:58.713Z,84
2022-09-09T06:36:03.365Z,83
2022-09-09T06:37:07.754Z,83
2022-09-09T06:38:12.201Z,83
2022-09-09T06:39:16.387Z,83
2022-09-09T06:40:21.477Z,83
2022-09-09T06:41:25.686Z,84
2022-09-09T06:42:30.526Z,83
2022-09-09T06:43:34.726Z,83
2022-09-09T06:44:38.969Z,83
2022-09-09T06:45:44.091Z,83
2022-09-09T06:46:58.400Z,84
2022-09-09T06:48:02.537Z,85
2022-09-09T06:49:07.149Z,84
2022-09-09T06:50:11.118Z,83
2022-09-09T06:51:15.773Z,84
2022-09-09T06:52:20.090Z,84
2022-09-09T06:53:24.309Z,84
2022-09-09T06:54:28.567Z,84
2022-09-09T06:55:32.741Z,85
2022-09-09T06:56:37.167Z,85
2022-09-09T06:57:44.076Z,85
2022-09-09T06:58:48.209Z,85
2022-09-09T06:59:52.373Z,85
2022-09-09T07:00:56.970Z,86
2022-09-09T07:02:07.788Z,84
2022-09-09T07:03:12.054Z,85
2022-09-09T07:04:16.289Z,85
2022-09-09T07:05:20.682Z,85
2022-09-09T07:06:25.317Z,84
2022-09-09T07:07:29.805Z,85
2022-09-09T07:08:33.929Z,85
2022-09-09T07:09:38.076Z,84
2022-09-09T07:10:42.549Z,84
2022-09-09T07:11:46.787Z,84
2022-09-09T07:12:51.053Z,84
2022-09-09T07:13:55.477Z,84
2022-09-09T07:14:59.606Z,85
2022-09-09T07:16:04.021Z,83
2022-09-09T07:17:08.469Z,83
2022-09-09T07:18:12.657Z,83
2022-09-09T07:19:17.138Z,84
2022-09-09T07:20:21.341Z,84
2022-09-09T07:21:25.597Z,83
2022-09-09T07:22:29.773Z,82
2022-09-09T07:23:36.235Z,83
2022-09-09T07:24:38.581Z,83
2022-09-09T07:25:43.750Z,83
2022-09-09T07:26:47.973Z,82
2022-09-09T07:27:52.248Z,82
2022-09-09T07:30:00.010Z,82
2022-09-09T07:31:05.009Z,82
2022-09-09T07:32:09.300Z,82
2022-09-09T07:33:13.537Z,83
2022-09-09T07:34:17.841Z,82
2022-09-09T07:35:22.249Z,82
2022-09-09T07:36:30.093Z,81
2022-09-09T07:37:31.009Z,81
2022-09-09T07:38:35.405Z,80
2022-09-09T07:39:40.310Z,81
2022-09-09T07:40:44.437Z,81
2022-09-09T07:41:48.812Z,82
2022-09-09T07:42:53.097Z,82
2022-09-09T07:43:57.277Z,81
2022-09-09T07:45:01.687Z,80
2022-09-09T07:46:06.828Z,80
2022-09-09T07:48:14.682Z,82
2022-09-09T07:49:21.456Z,81
2022-09-09T07:50:22.917Z,81
2022-09-09T07:51:27.405Z,83
2022-09-09T07:52:31.686Z,82
2022-09-09T07:53:43.296Z,81
2022-09-09T07:54:51.430Z,80
2022-09-09T07:56:05.993Z,81
2022-09-09T07:57:10.834Z,81
2022-09-09T07:58:15.205Z,82
2022-09-09T07:59:19.992Z,80
2022-09-09T08:00:24.245Z,80
2022-09-09T08:01:28.574Z,81
2022-09-09T08:02:33.050Z,81
2022-09-09T08:03:37.409Z,80
2022-09-09T08:04:42.158Z,79
2022-09-09T08:05:46.509Z,79
2022-09-09T08:06:51.332Z,79
2022-09-09T08:07:55.557Z,80
2022-09-09T08:08:59.824Z,79
2022-09-09T08:10:04.225Z,80
2022-09-09T08:11:08.861Z,81
2022-09-09T08:12:14.160Z,80
2022-09-09T08:13:19.289Z,80
2022-09-09T08:14:24.041Z,80
2022-09-09T08:15:28.682Z,80
2022-09-09T08:16:36.749Z,80
2022-09-09T08:19:03.519Z,80
2022-09-09T08:20:32.637Z,79
2022-09-09T08:21:46.305Z,80
2022-09-09T08:25:51.165Z,80
2022-09-09T08:26:57.677Z,80
2022-09-09T08:28:06.944Z,80
2022-09-09T08:29:11.252Z,81
2022-09-09T08:30:18.699Z,80
2022-09-09T08:32:33.086Z,80
2022-09-09T08:33:37.704Z,80
2022-09-09T08:34:46.406Z,79
2022-09-09T08:35:49.588Z,80
2022-09-09T08:36:53.593Z,79
2022-09-09T08:37:58.146Z,79
2022-09-09T08:39:02.414Z,80
2022-09-09T08:40:06.636Z,79
2022-09-09T08:41:12.777Z,80
2022-09-09T08:42:23.484Z,80
2022-09-09T08:43:32.823Z,80
2022-09-09T08:44:37.953Z,80
2022-09-09T08:45:47.233Z,80
2022-09-09T08:46:51.406Z,79
2022-09-09T08:48:01.385Z,80
2022-09-09T08:49:10.885Z,80
2022-09-09T08:50:23.234Z,80
2022-09-09T08:51:30.176Z,80
2022-09-09T08:52:34.409Z,79
2022-09-09T08:53:41.837Z,77
2022-09-09T08:54:52.320Z,76
2022-09-09T08:55:50.843Z,77
2022-09-09T08:56:57.987Z,77
2022-09-09T08:58:02.097Z,77
2022-09-09T08:59:09.264Z,76
2022-09-09T09:00:13.488Z,75
2022-09-09T09:01:18.107Z,75
2022-09-09T09:02:30.376Z,74
2022-09-09T09:03:34.852Z,75
2022-09-09T09:04:44.358Z,75
2022-09-09T09:05:54.534Z,73
2022-09-09T09:07:01.561Z,73
2022-09-09T09:08:10.977Z,73
2022-09-09T09:09:20.780Z,73
2022-09-09T09:10:41.989Z,75
2022-09-09T09:11:49.708Z,74
2022-09-09T09:13:01.182Z,73
2022-09-09T09:14:06.030Z,72
2022-09-09T09:15:20.560Z,72
2022-09-09T09:16:25.353Z,70
2022-09-09T09:17:34.685Z,70
2022-09-09T09:18:39.134Z,70
2022-09-09T09:19:43.340Z,72
2022-09-09T09:20:47.768Z,73
2022-09-09T09:22:02.165Z,74
2022-09-09T09:23:16.852Z,75
2022-09-09T09:24:22.239Z,76
2022-09-09T09:25:30.926Z,75
2022-09-09T09:26:37.772Z,75
2022-09-09T09:27:42.275Z,76
2022-09-09T09:28:46.516Z,76
2022-09-09T09:30:18.392Z,75
2022-09-09T09:32:01.537Z,74
2022-09-09T09:33:05.760Z,73
2022-09-09T09:34:13.368Z,73
2022-09-09T09:35:17.836Z,73
2022-09-09T09:36:22.118Z,72
2022-09-09T09:37:26.400Z,72
2022-09-09T09:40:39.039Z,71
2022-09-09T09:41:52.136Z,71
2022-09-09T09:42:57.054Z,70
2022-09-09T09:44:01.473Z,70
2022-09-09T09:45:06.462Z,70
2022-09-09T09:46:18.278Z,71
2022-09-09T09:47:21.713Z,70
2022-09-09T09:48:26.676Z,70
2022-09-09T09:49:31.061Z,69
2022-09-09T09:50:35.836Z,70
2022-09-09T09:51:47.960Z,71
2022-09-09T09:52:52.448Z,70
2022-09-09T09:54:01.872Z,68
2022-09-09T09:55:11.593Z,68
2022-09-09T09:56:16.100Z,70
2022-09-09T09:57:20.830Z,70
2022-09-09T09:58:28.162Z,69
2022-09-09T09:59:40.451Z,69
2022-09-09T10:00:36.716Z,67
2022-09-09T10:01:41.025Z,68
2022-09-09T10:02:45.357Z,67
2022-09-09T10:03:50.569Z,67
2022-09-09T10:05:02.924Z,68
2022-09-09T10:06:07.689Z,68
2022-09-09T10:07:12.552Z,67
2022-09-09T10:08:20.137Z,67
2022-09-09T10:09:27.384Z,68
2022-09-09T10:10:31.817Z,67
2022-09-09T10:11:38.872Z,67
2022-09-09T10:12:46.023Z,67
2022-09-09T10:13:58.285Z,68
2022-09-09T10:15:08.580Z,66
2022-09-09T10:16:18.024Z,67
2022-09-09T10:17:32.348Z,65
2022-09-09T10:18:39.200Z,66
2022-09-09T10:19:48.660Z,64
2022-09-09T10:20:55.788Z,65
2022-09-09T10:22:14.678Z,65
2022-09-09T10:23:23.970Z,64
2022-09-09T10:24:36.350Z,62
2022-09-09T10:25:45.828Z,63
2022-09-09T10:26:57.880Z,64
2022-09-09T10:28:07.180Z,63
2022-09-09T10:29:19.120Z,64
2022-09-09T10:30:28.612Z,64
2022-09-09T10:31:40.676Z,65
2022-09-09T10:32:49.996Z,64
2022-09-09T10:33:59.380Z,65
2022-09-09T10:35:11.540Z,65
2022-09-09T10:36:23.736Z,66
2022-09-09T10:37:28.836Z,64
2022-09-09T10:38:38.356Z,64
2022-09-09T10:39:47.648Z,63
2022-09-09T10:40:51.857Z,62
2022-09-09T10:41:56.396Z,62
2022-09-09T10:43:05.673Z,63
2022-09-09T10:44:20.022Z,65
2022-09-09T10:45:34.489Z,62
2022-09-09T10:46:43.820Z,63
2022-09-09T10:47:53.084Z,64
2022-09-09T10:49:03.176Z,63
2022-09-09T10:50:17.620Z,63
2022-09-09T10:51:29.744Z,64
2022-09-09T10:52:44.248Z,64
2022-09-09T10:53:58.827Z,59
2022-09-09T10:55:13.240Z,59
2022-09-09T10:56:20.616Z,58
2022-09-09T10:57:24.888Z,58
2022-09-09T10:58:34.151Z,55
2022-09-09T10:59:41.316Z,55
2022-09-09T11:00:45.780Z,55
2022-09-09T11:01:52.877Z,56
2022-09-09T11:03:07.200Z,56
2022-09-09T11:04:11.756Z,57
2022-09-09T11:05:19.216Z,55
2022-09-09T11:06:24.301Z,55
2022-09-09T11:07:31.252Z,55
2022-09-09T11:08:38.693Z,56
2022-09-09T11:09:42.947Z,56
2022-09-09T11:10:47.209Z,54
2022-09-09T11:11:59.485Z,55
2022-09-09T11:13:03.793Z,54
2022-09-09T11:14:13.328Z,55
2022-09-09T11:15:27.616Z,55
2022-09-09T11:16:37.049Z,54
2022-09-09T11:17:46.427Z,53
2022-09-09T11:18:55.648Z,52
2022-09-09T11:19:59.972Z,53
2022-09-09T11:21:04.288Z,53
2022-09-09T11:22:08.560Z,53
2022-09-09T11:23:25.585Z,51
2022-09-09T11:24:35.782Z,51
2022-09-09T11:25:45.008Z,52
2022-09-09T11:26:56.993Z,53
2022-09-09T11:28:04.751Z,52
2022-09-09T11:29:19.586Z,52
2022-09-09T11:30:54.020Z,54
2022-09-09T11:31:48.808Z,53
2022-09-09T11:33:03.132Z,53
2022-09-09T11:34:10.109Z,52
2022-09-09T11:35:22.092Z,54
2022-09-09T11:36:31.035Z,54
2022-09-09T11:37:53.133Z,51
2022-09-09T11:39:02.526Z,50
2022-09-09T11:40:11.914Z,50
2022-09-09T11:41:22.012Z,49
2022-09-09T11:42:26.057Z,51
2022-09-09T11:43:30.410Z,51
2022-09-09T11:45:41.856Z,52
2022-09-09T11:47:49.511Z,52
2022-09-09T11:48:56.532Z,53
2022-09-09T11:50:01.316Z,52
2022-09-09T11:51:10.191Z,52
2022-09-09T11:52:12.768Z,51
2022-09-09T11:53:27.220Z,51
2022-09-09T11:54:31.584Z,51
2022-09-09T11:55:36.720Z,52
2022-09-09T11:56:41.825Z,52
2022-09-09T11:57:49.432Z,53
2022-09-09T11:58:50.439Z,52
2022-09-09T12:00:00.438Z,52
2022-09-09T12:01:04.896Z,51
2022-09-09T12:02:14.203Z,50
2022-09-09T12:03:19.065Z,50
2022-09-09T12:04:33.441Z,50
2022-09-09T12:05:45.204Z,50
2022-09-09T12:06:50.353Z,51
2022-09-09T12:07:59.895Z,51
2022-09-09T12:09:04.043Z,51
2022-09-09T12:10:11.428Z,51
2022-09-09T12:11:25.970Z,52
2022-09-09T12:12:30.355Z,52
2022-09-09T12:13:37.944Z,49
2022-09-09T12:14:42.127Z,50
2022-09-09T12:15:47.284Z,51
2022-09-09T12:16:51.462Z,50
2022-09-09T12:17:58.050Z,50
2022-09-09T12:19:00.134Z,49
2022-09-09T12:21:21.255Z,49
2022-09-09T12:23:40.676Z,50
2022-09-09T12:24:50.615Z,52
2022-09-09T12:25:55.204Z,52
2022-09-09T12:27:04.442Z,51
2022-09-09T12:28:14.161Z,50
2022-09-09T12:29:28.399Z,50
2022-09-09T12:30:37.769Z,51
2022-09-09T12:31:50.139Z,50
2022-09-09T12:33:04.453Z,50
2022-09-09T12:34:13.750Z,49
2022-09-09T12:35:28.879Z,49
2022-09-09T12:36:33.157Z,50
2022-09-09T12:37:38.026Z,50
2022-09-09T12:38:44.879Z,51
2022-09-09T12:39:49.171Z,51
2022-09-09T12:40:53.515Z,52
2022-09-09T12:41:58.588Z,51
2022-09-09T12:43:10.044Z,52
2022-09-09T12:45:24.235Z,52
2022-09-09T12:46:29.266Z,52
2022-09-09T12:47:37.203Z,50
2022-09-09T12:48:41.414Z,51
2022-09-09T12:49:46.171Z,51
2022-09-09T12:50:50.990Z,50
2022-09-09T12:51:55.214Z,51
2022-09-09T12:53:00.143Z,50
2022-09-09T12:54:09.847Z,50
2022-09-09T12:55:14.003Z,50
2022-09-09T12:56:26.415Z,51
2022-09-09T12:57:31.788Z,51
2022-09-09T12:58:39.538Z,50
2022-09-09T12:59:43.482Z,49
2022-09-09T13:00:48.196Z,49
2022-09-09T13:01:56.259Z,49
2022-09-09T13:03:00.499Z,50
2022-09-09T13:07:44.815Z,50
2022-09-09T13:08:49.043Z,50
2022-09-09T13:09:53.342Z,51
2022-09-09T13:12:48.075Z,51
2022-09-09T13:13:52.850Z,50
2022-09-09T13:14:57.404Z,52
2022-09-09T13:16:03.479Z,52
2022-09-09T13:17:10.115Z,50
2022-09-09T13:18:22.659Z,51
2022-09-09T13:19:37.251Z,49
2022-09-09T13:20:41.647Z,50
2022-09-09T13:21:51.027Z,52
2022-09-09T13:22:55.298Z,50
2022-09-09T13:23:59.755Z,51
2022-09-09T13:25:07.409Z,51
2022-09-09T13:26:12.591Z,52
2022-09-09T13:27:25.492Z,53
2022-09-09T13:28:36.374Z,54
2022-09-09T13:29:40.990Z,53
2022-09-09T13:30:45.619Z,53
2022-09-09T13:32:00.114Z,53
2022-09-09T13:33:07.315Z,53
2022-09-09T13:34:14.958Z,52
2022-09-09T13:35:30.099Z,51
2022-09-09T13:36:34.379Z,53
2022-09-09T13:37:38.675Z,53
2022-09-09T13:38:43.834Z,53
2022-09-09T13:39:53.218Z,53
2022-09-09T13:40:57.487Z,53
2022-09-09T13:42:06.830Z,52
2022-09-09T13:43:14.073Z,51
2022-09-09T13:44:18.765Z,51
2022-09-09T13:45:25.798Z,50
2022-09-09T13:46:30.158Z,50
2022-09-09T13:47:40.657Z,51
2022-09-09T13:48:44.877Z,52
2022-09-09T13:49:59.254Z,52
2022-09-09T13:51:11.244Z,51
2022-09-09T13:52:23.173Z,51
2022-09-09T13:53:27.400Z,52
2022-09-09T13:54:31.796Z,52
2022-09-09T13:55:36.048Z,51
2022-09-09T13:56:40.592Z,51
2022-09-09T13:57:45.409Z,51
2022-09-09T13:58:57.973Z,49
2022-09-09T14:00:06.221Z,51
2022-09-09T14:01:06.776Z,52
2022-09-09T14:02:11.051Z,51
2022-09-09T14:03:15.478Z,50
2022-09-09T14:04:20.300Z,51
2022-09-09T14:05:24.528Z,51
2022-09-09T14:06:28.724Z,52
2022-09-09T14:07:33.043Z,52
2022-09-09T14:08:37.416Z,52
2022-09-09T14:09:41.812Z,51
2022-09-09T14:10:46.087Z,51
2022-09-09T14:11:50.288Z,51
2022-09-09T14:12:54.773Z,52
2022-09-09T14:13:58.956Z,52
2022-09-09T14:15:03.597Z,52
2022-09-09T14:16:08.457Z,53
2022-09-09T14:17:13.676Z,52
2022-09-09T14:18:18.367Z,51
2022-09-09T14:19:22.868Z,51
2022-09-09T14:20:27.076Z,51
2022-09-09T14:21:31.600Z,52
2022-09-09T14:22:36.396Z,51
2022-09-09T14:23:43.281Z,52
2022-09-09T14:24:47.658Z,52
2022-09-09T14:25:51.918Z,52
2022-09-09T14:26:56.932Z,52
2022-09-09T14:28:02.625Z,52
2022-09-09T14:29:06.957Z,52
2022-09-09T14:30:11.448Z,52
2022-09-09T14:31:16.406Z,52
2022-09-09T14:32:20.636Z,51
2022-09-09T14:33:24.945Z,51
2022-09-09T14:34:29.368Z,52
2022-09-09T14:35:36.453Z,52
2022-09-09T14:36:41.445Z,52
2022-09-09T14:37:45.754Z,52
2022-09-09T14:38:49.988Z,53
2022-09-09T14:39:54.327Z,53
2022-09-09T14:40:58.565Z,53
2022-09-09T14:42:02.909Z,53
2022-09-09T14:43:07.360Z,54
2022-09-09T14:44:12.640Z,54
2022-09-09T14:45:17.229Z,54
2022-09-09T14:46:21.566Z,54
2022-09-09T14:47:26.080Z,53
2022-09-09T14:48:30.571Z,53
2022-09-09T14:49:34.746Z,53
2022-09-09T14:50:39.184Z,53
2022-09-09T14:51:43.564Z,54
2022-09-09T14:52:48.056Z,54
2022-09-09T14:53:52.476Z,53
2022-09-09T14:54:56.896Z,53
2022-09-09T14:56:01.328Z,54
2022-09-09T14:57:08.723Z,55
2022-09-09T14:59:16.388Z,54
2022-09-09T15:00:21.251Z,54
2022-09-09T15:01:26.668Z,54
2022-09-09T15:02:30.823Z,56
2022-09-09T15:03:35.161Z,55
2022-09-09T15:04:39.634Z,56
2022-09-09T15:05:44.277Z,58
2022-09-09T15:06:48.504Z,58
2022-09-09T15:07:52.715Z,58
2022-09-09T15:08:56.952Z,58
2022-09-09T15:10:02.396Z,57
2022-09-09T15:11:07.028Z,57
2022-09-09T15:12:11.895Z,57
2022-09-09T15:13:16.196Z,57
2022-09-09T15:14:22.361Z,59
2022-09-09T15:15:25.808Z,59
2022-09-09T15:16:30.051Z,59
2022-09-09T15:17:34.440Z,58
2022-09-09T15:18:39.075Z,55
2022-09-09T15:19:46.292Z,55
2022-09-09T15:20:50.845Z,56
2022-09-09T15:21:55.184Z,56
2022-09-09T15:22:59.597Z,57
2022-09-09T15:24:04.284Z,58
2022-09-09T15:25:08.820Z,57
2022-09-09T15:26:14.011Z,56
2022-09-09T15:27:18.276Z,58
2022-09-09T15:28:22.592Z,60
2022-09-09T15:29:30.472Z,61
2022-09-09T15:30:35.192Z,62
2022-09-09T15:31:39.543Z,61
2022-09-09T15:32:43.940Z,61
2022-09-09T15:33:48.388Z,61
2022-09-09T15:34:53.072Z,60
2022-09-09T15:35:57.368Z,60
2022-09-09T15:37:02.044Z,60
2022-09-09T15:38:06.711Z,60
2022-09-09T15:39:14.128Z,61
2022-09-09T15:40:18.830Z,61
2022-09-09T15:41:23.288Z,61
2022-09-09T15:42:27.633Z,62
2022-09-09T15:43:32.424Z,62
2022-09-09T15:44:39.915Z,62
2022-09-09T15:45:44.275Z,63
2022-09-09T15:46:49.646Z,63
2022-09-09T15:47:56.724Z,64
2022-09-09T15:49:02.139Z,64
2022-09-09T15:50:14.788Z,65
2022-09-09T15:51:40.323Z,65
2022-09-09T15:52:24.184Z,65
2022-09-09T15:53:29.192Z,65
2022-09-09T15:54:36.248Z,65
2022-09-09T15:55:40.652Z,66
2022-09-09T15:56:46.475Z,67
2022-09-09T15:57:53.916Z,67
2022-09-09T15:58:58.963Z,68
2022-09-09T16:00:03.671Z,68
2022-09-09T16:01:08.612Z,69
2022-09-09T16:02:16.079Z,68
2022-09-09T16:03:20.467Z,68
2022-09-09T16:04:25.070Z,68
2022-09-09T16:05:29.451Z,68
2022-09-09T16:06:33.803Z,68
2022-09-09T16:07:38.529Z,69
2022-09-09T16:08:42.916Z,69
2022-09-09T16:09:51.764Z,69
2022-09-09T16:10:56.123Z,69
2022-09-09T16:12:05.631Z,69
2022-09-09T16:13:09.926Z,69
2022-09-09T16:14:14.831Z,69
2022-09-09T16:15:24.028Z,70
2022-09-09T16:16:28.995Z,70
2022-09-09T16:17:33.391Z,69
2022-09-09T16:18:37.719Z,69
2022-09-09T16:19:43.432Z,69
2022-09-09T16:20:48.131Z,69
2022-09-09T16:21:55.943Z,69
2022-09-09T16:23:00.945Z,69
2022-09-09T16:24:05.368Z,70
2022-09-09T16:26:13.483Z,70
2022-09-09T16:27:18.444Z,71
2022-09-09T16:28:22.740Z,71
2022-09-09T16:29:27.185Z,70
2022-09-09T16:30:31.455Z,71
2022-09-09T16:31:35.757Z,71
2022-09-09T16:32:39.983Z,72
2022-09-09T16:33:44.439Z,72
2022-09-09T16:34:51.203Z,73
2022-09-09T16:35:55.467Z,73
2022-09-09T16:37:00.039Z,74
2022-09-09T16:38:04.260Z,74
2022-09-09T16:39:08.416Z,75
2022-09-09T16:40:12.755Z,75
2022-09-09T16:41:17.171Z,75
2022-09-09T16:42:21.371Z,74
2022-09-09T16:43:25.695Z,74
2022-09-09T16:44:30.031Z,74
2022-09-09T16:45:34.371Z,74
2022-09-09T16:46:44.222Z,73
2022-09-09T16:47:48.348Z,73
2022-09-09T16:48:52.623Z,73
2022-09-09T16:49:59.567Z,72
2022-09-09T16:51:04.068Z,71
2022-09-09T16:52:08.275Z,71
2022-09-09T16:53:12.647Z,71
2022-09-09T16:54:16.841Z,71
2022-09-09T16:55:22.003Z,71
2022-09-09T16:56:26.547Z,71
2022-09-09T16:57:30.946Z,71
2022-09-09T16:58:36.329Z,71
2022-09-09T16:59:40.527Z,72
2022-09-09T17:00:44.928Z,72
2022-09-09T17:01:49.231Z,73
2022-09-09T17:02:53.719Z,73
2022-09-09T17:04:01.021Z,73
2022-09-09T17:05:05.320Z,73